createdAt,value
2017-07-02T00:00:12.691Z,21.87
2017-07-02T00:02:42.216Z,26.10
2017-07-02T00:05:10.492Z,24.90
2017-07-02T00:07:38.774Z,17.57
2017-07-02T00:10:07.079Z,17.50
2017-07-02T00:12:35.388Z,20.97
2017-07-02T00:15:03.684Z,15.97
2017-07-02T00:17:31.936Z,21.80
2017-07-02T00:20:00.246Z,15.27
2017-07-02T00:22:28.508Z,14.17
2017-07-02T00:24:56.791Z,18.43
2017-07-02T00:27:25.109Z,17.83
2017-07-02T00:29:53.387Z,21.50
2017-07-02T00:32:21.670Z,20.57
2017-07-02T00:34:49.969Z,17.23
2017-07-02T00:37:18.262Z,14.90
2017-07-02T00:39:46.605Z,23.67
2017-07-02T00:42:15.775Z,21.77
2017-07-02T00:44:44.820Z,17.90
2017-07-02T00:47:13.224Z,14.33
2017-07-02T00:49:41.520Z,15.73
2017-07-02T00:52:10.607Z,13.00
2017-07-02T00:54:39.658Z,13.43
2017-07-02T00:57:07.978Z,19.10
2017-07-02T00:59:37.049Z,34.40
2017-07-02T01:02:05.326Z,17.43
2017-07-02T01:04:33.685Z,15.17
2017-07-02T01:07:01.957Z,18.20
2017-07-02T01:09:30.396Z,16.00
2017-07-02T01:11:59.442Z,15.67
2017-07-02T01:14:27.716Z,23.30
2017-07-02T01:16:56.057Z,30.83
2017-07-02T01:19:24.342Z,22.20
2017-07-02T01:21:52.656Z,20.33
2017-07-02T01:24:20.954Z,15.93
2017-07-02T01:26:50.048Z,20.83
2017-07-02T01:29:18.274Z,10.73
2017-07-02T01:31:46.564Z,13.90
2017-07-02T01:34:14.836Z,15.83
2017-07-02T01:36:43.104Z,13.33
2017-07-02T01:39:11.388Z,16.03
2017-07-02T01:41:39.655Z,16.47
2017-07-02T01:44:07.940Z,11.07
2017-07-02T01:46:36.253Z,16.63
2017-07-02T01:49:04.597Z,17.90
2017-07-02T01:51:32.955Z,20.43
2017-07-02T01:54:01.235Z,17.97
2017-07-02T01:56:29.491Z,20.53
2017-07-02T01:58:57.823Z,16.67
2017-07-02T02:01:38.951Z,20.57
2017-07-02T02:04:07.208Z,26.33
2017-07-02T02:06:35.526Z,19.23
2017-07-02T02:09:03.826Z,15.90
2017-07-02T02:11:32.100Z,18.43
2017-07-02T02:14:00.400Z,16.60
2017-07-02T02:16:28.676Z,22.07
2017-07-02T02:18:56.933Z,25.10
2017-07-02T02:21:25.252Z,22.87
2017-07-02T02:23:54.289Z,20.27
2017-07-02T02:26:22.540Z,22.20
2017-07-02T02:28:50.815Z,16.33
2017-07-02T02:31:19.085Z,18.80
2017-07-02T02:33:47.373Z,20.27
2017-07-02T02:36:15.676Z,29.10
2017-07-02T02:38:43.991Z,25.57
2017-07-02T02:41:12.320Z,19.33
2017-07-02T02:43:40.597Z,20.87
2017-07-02T02:46:08.875Z,19.90
2017-07-02T02:48:37.167Z,29.37
2017-07-02T02:51:05.411Z,23.13
2017-07-02T02:53:33.701Z,25.07
2017-07-02T02:56:01.977Z,20.27
2017-07-02T02:58:31.033Z,17.93
2017-07-02T03:00:59.264Z,21.50
2017-07-02T03:03:27.701Z,22.00
2017-07-02T03:05:55.923Z,33.17
2017-07-02T03:08:24.210Z,20.97
2017-07-02T03:10:52.495Z,32.10
2017-07-02T03:13:20.776Z,24.07
2017-07-02T03:15:49.862Z,19.73
2017-07-02T03:18:18.139Z,22.53
2017-07-02T03:20:46.516Z,27.50
2017-07-02T03:23:14.786Z,24.90
2017-07-02T03:25:43.036Z,22.37
2017-07-02T03:28:11.475Z,20.70
2017-07-02T03:30:39.742Z,21.70
2017-07-02T03:33:08.041Z,23.93
2017-07-02T03:35:36.310Z,23.50
2017-07-02T03:38:05.340Z,27.87
2017-07-02T03:40:33.618Z,15.80
2017-07-02T03:43:01.868Z,21.63
2017-07-02T03:45:30.909Z,25.20
2017-07-02T03:47:59.180Z,25.37
2017-07-02T03:50:27.460Z,22.20
2017-07-02T03:52:55.744Z,28.83
2017-07-02T03:55:24.019Z,19.13
2017-07-02T03:57:52.282Z,22.70
2017-07-02T04:00:20.585Z,27.30
2017-07-02T04:02:48.914Z,22.77
2017-07-02T04:05:17.209Z,23.03
2017-07-02T04:07:45.588Z,22.10
2017-07-02T04:10:13.969Z,24.03
2017-07-02T04:12:42.468Z,32.97
2017-07-02T04:15:10.741Z,23.33
2017-07-02T04:17:38.982Z,21.50
2017-07-02T04:20:07.268Z,28.40
2017-07-02T04:22:36.356Z,27.63
2017-07-02T04:25:04.617Z,23.37
2017-07-02T04:27:32.894Z,23.00
2017-07-02T04:30:01.240Z,21.63
2017-07-02T04:32:29.512Z,18.93
2017-07-02T04:34:57.809Z,24.03
2017-07-02T04:37:26.087Z,22.13
2017-07-02T04:39:54.357Z,20.23
2017-07-02T04:42:22.632Z,25.60
2017-07-02T04:44:50.884Z,18.00
2017-07-02T04:47:19.186Z,22.10
2017-07-02T04:49:47.437Z,20.43
2017-07-02T04:52:15.723Z,22.87
2017-07-02T04:54:44.011Z,28.50
2017-07-02T04:57:12.296Z,16.27
2017-07-02T04:59:40.564Z,23.27
2017-07-02T05:02:08.811Z,22.77
2017-07-02T05:04:37.108Z,21.17
2017-07-02T05:07:05.387Z,20.20
2017-07-02T05:09:33.660Z,18.67
2017-07-02T05:12:01.920Z,16.03
2017-07-02T05:14:30.200Z,18.23
2017-07-02T05:16:58.494Z,16.70
2017-07-02T05:19:26.763Z,18.63
2017-07-02T05:21:55.018Z,18.63
2017-07-02T05:24:23.320Z,21.60
2017-07-02T05:26:51.593Z,23.93
2017-07-02T05:29:19.896Z,23.63
2017-07-02T05:31:48.147Z,18.97
2017-07-02T05:34:16.432Z,21.93
2017-07-02T05:36:44.712Z,17.53
2017-07-02T05:39:12.978Z,17.57
2017-07-02T05:41:41.255Z,12.93
2017-07-02T05:44:09.527Z,20.23
2017-07-02T05:46:37.813Z,19.83
2017-07-02T05:49:06.083Z,16.20
2017-07-02T05:51:34.364Z,16.90
2017-07-02T05:54:02.638Z,18.83
2017-07-02T05:56:30.928Z,16.07
2017-07-02T05:58:59.198Z,11.73
2017-07-02T06:01:27.468Z,14.47
2017-07-02T06:03:55.717Z,13.87
2017-07-02T06:06:24.018Z,21.03
2017-07-02T06:08:52.300Z,12.67
2017-07-02T06:11:20.577Z,13.03
2017-07-02T06:13:48.839Z,13.90
2017-07-02T06:16:17.091Z,13.60
2017-07-02T06:18:46.139Z,14.17
2017-07-02T06:21:14.454Z,11.70
2017-07-02T06:23:43.504Z,18.17
2017-07-02T06:26:11.741Z,13.80
2017-07-02T06:28:40.028Z,12.27
2017-07-02T06:31:08.311Z,16.73
2017-07-02T06:33:36.624Z,15.87
2017-07-02T06:36:04.935Z,20.43
2017-07-02T06:38:33.961Z,13.33
2017-07-02T06:41:02.263Z,16.77
2017-07-02T06:43:32.167Z,19.90
2017-07-02T06:46:00.408Z,16.43
2017-07-02T06:48:28.712Z,17.03
2017-07-02T06:50:56.957Z,14.37
2017-07-02T06:53:25.256Z,16.10
2017-07-02T06:55:53.512Z,14.57
2017-07-02T06:58:21.799Z,13.27
2017-07-02T07:00:50.065Z,15.80
2017-07-02T07:03:19.083Z,15.70
2017-07-02T07:05:47.369Z,19.17
2017-07-02T07:08:15.652Z,11.57
2017-07-02T07:10:43.923Z,16.13
2017-07-02T07:13:12.299Z,18.80
2017-07-02T07:15:40.568Z,13.33
2017-07-02T07:18:08.829Z,14.63
2017-07-02T07:20:37.101Z,16.33
2017-07-02T07:23:05.369Z,14.50
2017-07-02T07:25:33.722Z,18.07
2017-07-02T07:28:02.780Z,14.07
2017-07-02T07:30:31.035Z,13.77
2017-07-02T07:32:59.335Z,19.67
2017-07-02T07:35:27.648Z,10.30
2017-07-02T07:37:56.435Z,16.80
2017-07-02T07:40:24.666Z,13.73
2017-07-02T07:42:52.952Z,17.53
2017-07-02T07:45:21.266Z,17.07
2017-07-02T07:47:49.857Z,14.57
2017-07-02T07:50:18.959Z,10.63
2017-07-02T07:52:47.228Z,12.50
2017-07-02T07:55:16.274Z,14.60
2017-07-02T07:57:44.700Z,17.27
2017-07-02T08:00:12.930Z,11.47
2017-07-02T08:02:41.225Z,16.10
2017-07-02T08:05:09.522Z,15.93
2017-07-02T08:07:37.849Z,15.33
2017-07-02T08:10:06.153Z,17.33
2017-07-02T08:12:34.463Z,18.40
2017-07-02T08:15:02.749Z,17.93
2017-07-02T08:17:31.037Z,12.70
2017-07-02T08:19:59.384Z,24.73
2017-07-02T08:22:28.500Z,13.70
2017-07-02T08:24:57.526Z,15.07
2017-07-02T08:27:25.856Z,13.70
2017-07-02T08:29:54.960Z,21.90
2017-07-02T08:32:24.870Z,18.03
2017-07-02T08:34:53.208Z,13.73
2017-07-02T08:37:21.481Z,14.80
2017-07-02T08:39:49.778Z,11.73
2017-07-02T08:42:18.090Z,13.10
2017-07-02T08:44:46.438Z,15.60
2017-07-02T08:47:14.716Z,17.57
2017-07-02T08:49:43.007Z,13.53
2017-07-02T08:52:11.320Z,15.30
2017-07-02T08:54:39.588Z,15.50
2017-07-02T08:57:07.898Z,14.17
2017-07-02T08:59:36.207Z,14.07
2017-07-02T09:02:05.265Z,15.57
2017-07-02T09:04:33.573Z,17.93
2017-07-02T09:07:01.930Z,19.00
2017-07-02T09:09:30.263Z,19.90
2017-07-02T09:11:59.484Z,19.03
2017-07-02T09:14:27.721Z,20.60
2017-07-02T09:16:56.776Z,29.23
2017-07-02T09:19:25.088Z,21.03
2017-07-02T09:21:54.243Z,19.43
2017-07-02T09:24:22.551Z,24.50
2017-07-02T09:26:51.580Z,21.00
2017-07-02T09:29:19.932Z,20.47
2017-07-02T09:31:48.259Z,22.50
2017-07-02T09:34:16.547Z,21.00
2017-07-02T09:36:44.819Z,19.77
2017-07-02T09:39:13.134Z,16.83
2017-07-02T09:41:41.440Z,16.10
2017-07-02T09:44:09.800Z,15.50
2017-07-02T09:46:39.785Z,15.97
2017-07-02T09:49:08.045Z,15.00
2017-07-02T09:51:36.371Z,13.73
2017-07-02T09:54:04.706Z,12.40
2017-07-02T09:56:33.001Z,13.37
2017-07-02T09:59:01.326Z,14.00
2017-07-02T10:01:29.629Z,16.80
2017-07-02T10:03:59.451Z,17.03
2017-07-02T10:06:31.780Z,17.50
2017-07-02T10:09:00.091Z,19.27
2017-07-02T10:11:28.393Z,22.40
2017-07-02T10:13:56.787Z,24.20
2017-07-02T10:16:26.143Z,25.30
2017-07-02T10:18:55.268Z,23.57
2017-07-02T10:21:23.587Z,22.50
2017-07-02T10:23:51.892Z,26.50
2017-07-02T10:26:20.190Z,28.40
2017-07-02T10:28:48.515Z,25.50
2017-07-02T10:31:16.807Z,27.57
2017-07-02T10:33:45.084Z,27.53
2017-07-02T10:36:13.383Z,28.83
2017-07-02T10:38:41.735Z,30.73
2017-07-02T10:41:10.034Z,29.00
2017-07-02T10:43:38.319Z,26.77
2017-07-02T10:46:06.637Z,22.03
2017-07-02T10:48:35.703Z,21.47
2017-07-02T10:51:04.050Z,24.20
2017-07-02T10:53:32.330Z,22.10
2017-07-02T10:56:00.641Z,25.30
2017-07-02T10:58:28.934Z,27.70
2017-07-02T11:00:58.019Z,24.03
2017-07-02T11:03:26.317Z,22.77
2017-07-02T11:06:08.365Z,28.03
2017-07-02T11:08:37.243Z,25.90
2017-07-02T11:11:05.506Z,25.13
2017-07-02T11:13:34.624Z,24.67
2017-07-02T11:16:02.896Z,23.87
2017-07-02T11:18:31.644Z,25.37
2017-07-02T11:20:59.935Z,22.33
2017-07-02T11:23:28.976Z,22.93
2017-07-02T11:25:57.313Z,23.80
2017-07-02T11:28:26.352Z,25.47
2017-07-02T11:30:54.710Z,21.77
2017-07-02T11:33:23.015Z,25.40
2017-07-02T11:35:51.428Z,31.43
2017-07-02T11:40:57.274Z,28.00
2017-07-02T11:43:26.460Z,22.77
2017-07-02T11:45:54.817Z,25.33
2017-07-02T11:48:23.129Z,25.87
2017-07-02T11:50:51.486Z,25.20
2017-07-02T11:53:19.803Z,22.77
2017-07-02T11:55:48.193Z,22.30
2017-07-02T11:58:17.269Z,21.30
2017-07-02T12:00:46.385Z,21.73
2017-07-02T12:03:15.498Z,22.50
2017-07-02T12:05:44.579Z,21.23
2017-07-02T12:08:13.045Z,21.63
2017-07-02T12:10:42.113Z,21.73
2017-07-02T12:13:10.399Z,22.10
2017-07-02T12:15:38.691Z,22.80
2017-07-02T12:18:07.818Z,22.80
2017-07-02T12:20:36.174Z,23.27
2017-07-02T12:23:04.576Z,19.67
2017-07-02T12:25:32.925Z,18.60
2017-07-02T12:28:01.333Z,21.13
2017-07-02T12:33:29.510Z,13.60
2017-07-02T12:35:57.883Z,15.17
2017-07-02T12:38:27.105Z,13.20
2017-07-02T12:40:55.413Z,12.50
2017-07-02T12:43:24.505Z,13.93
2017-07-02T12:45:52.951Z,11.03
2017-07-02T12:48:22.133Z,11.97
2017-07-02T12:50:50.396Z,11.33
2017-07-02T12:53:18.709Z,11.40
2017-07-02T12:55:46.977Z,10.17
2017-07-02T12:58:15.298Z,10.13
2017-07-02T13:00:43.622Z,12.40
2017-07-02T13:03:12.741Z,11.10
2017-07-02T13:05:41.093Z,12.07
2017-07-02T13:08:09.402Z,11.13
2017-07-02T13:10:37.712Z,11.97
2017-07-02T13:13:06.003Z,10.60
2017-07-02T13:15:35.123Z,11.33
2017-07-02T13:18:03.496Z,9.60
2017-07-02T13:20:32.624Z,9.70
2017-07-02T13:23:01.022Z,8.17
2017-07-02T13:25:29.450Z,9.83
2017-07-02T13:27:57.778Z,9.07
2017-07-02T13:30:26.081Z,9.87
2017-07-02T13:32:54.436Z,9.50
2017-07-02T13:35:22.750Z,12.13
2017-07-02T13:37:51.031Z,9.77
2017-07-02T13:40:20.885Z,11.07
2017-07-02T13:42:49.193Z,7.77
2017-07-02T13:45:17.488Z,9.20
2017-07-02T13:47:45.878Z,10.73
2017-07-02T13:50:14.974Z,10.43
2017-07-02T13:52:43.276Z,9.60
2017-07-02T13:55:11.565Z,10.93
2017-07-02T13:57:39.875Z,10.97
2017-07-02T14:00:08.205Z,12.23
2017-07-02T14:02:36.540Z,12.87
2017-07-02T14:05:04.838Z,13.57
2017-07-02T14:07:33.317Z,13.23
2017-07-02T14:10:01.567Z,14.50
2017-07-02T14:12:29.983Z,12.37
2017-07-02T14:14:58.381Z,14.53
2017-07-02T14:17:27.508Z,14.60
2017-07-02T14:19:55.886Z,13.43
2017-07-02T14:22:24.209Z,13.73
2017-07-02T14:24:53.317Z,14.13
2017-07-02T14:27:21.620Z,15.53
2017-07-02T14:29:49.944Z,15.10
2017-07-02T14:32:18.305Z,13.10
2017-07-02T14:34:46.610Z,13.67
2017-07-02T14:37:15.333Z,13.10
2017-07-02T14:39:45.779Z,12.83
2017-07-02T14:42:14.850Z,13.13
2017-07-02T14:44:43.237Z,13.67
2017-07-02T14:47:11.702Z,13.23
2017-07-02T14:49:44.403Z,14.87
2017-07-02T14:55:12.797Z,13.37
2017-07-02T14:57:41.099Z,12.30
2017-07-02T15:00:09.499Z,12.93
2017-07-02T15:02:37.745Z,12.37
2017-07-02T15:05:07.419Z,10.80
2017-07-02T15:07:37.472Z,11.10
2017-07-02T15:10:06.110Z,13.30
2017-07-02T15:12:34.793Z,12.93
2017-07-02T15:15:04.161Z,14.60
2017-07-02T15:17:32.494Z,14.50
2017-07-02T15:20:00.835Z,12.73
2017-07-02T15:22:29.935Z,12.10
2017-07-02T15:24:58.259Z,15.40
2017-07-02T15:27:26.637Z,13.10
2017-07-02T15:29:55.384Z,10.47
2017-07-02T15:32:23.719Z,11.37
2017-07-02T15:34:52.099Z,10.13
2017-07-02T15:37:20.610Z,10.10
2017-07-02T15:39:49.111Z,9.63
2017-07-02T15:42:18.324Z,9.40
2017-07-02T15:44:46.695Z,8.80
2017-07-02T15:47:15.109Z,6.60
2017-07-02T15:49:43.544Z,6.70
2017-07-02T15:52:11.945Z,8.07
2017-07-02T15:54:40.980Z,7.97
2017-07-02T15:57:09.312Z,10.20
2017-07-02T15:59:37.687Z,9.27
2017-07-02T16:02:07.087Z,8.00
2017-07-02T16:04:36.244Z,7.70
2017-07-02T16:07:04.573Z,9.03
2017-07-02T16:09:33.000Z,6.67
2017-07-02T16:12:01.883Z,5.37
2017-07-02T16:14:30.344Z,4.43
2017-07-02T16:16:58.669Z,4.07
2017-07-02T16:19:27.252Z,13.83
2017-07-02T16:21:55.812Z,11.43
2017-07-02T16:24:24.393Z,6.40
2017-07-02T16:26:52.914Z,3.90
2017-07-02T16:29:21.369Z,3.07
2017-07-02T16:31:50.032Z,3.70
2017-07-02T16:34:18.581Z,3.23
2017-07-02T16:36:47.233Z,2.50
2017-07-02T16:39:15.953Z,5.60
2017-07-02T16:41:44.495Z,2.90
2017-07-02T16:44:12.949Z,2.23
2017-07-02T16:46:41.232Z,2.47
2017-07-02T16:49:09.575Z,2.40
2017-07-02T16:51:37.922Z,3.70
2017-07-02T16:54:06.267Z,4.60
2017-07-02T16:56:34.604Z,2.53
2017-07-02T16:59:02.939Z,2.33
2017-07-02T17:01:31.239Z,2.13
2017-07-02T17:04:00.340Z,2.00
2017-07-02T17:06:29.564Z,3.30
2017-07-02T17:08:57.903Z,2.33
2017-07-02T17:11:26.175Z,3.63
2017-07-02T17:13:55.301Z,2.80
2017-07-02T17:16:23.642Z,1.90
2017-07-02T17:18:51.966Z,3.80
2017-07-02T17:21:21.006Z,6.53
2017-07-02T17:23:49.279Z,5.10
2017-07-02T17:26:18.210Z,2.53
2017-07-02T17:28:46.477Z,3.40
2017-07-02T17:31:15.680Z,3.50
2017-07-02T17:33:44.076Z,5.70
2017-07-02T17:36:12.537Z,2.63
2017-07-02T17:38:41.828Z,8.00
2017-07-02T17:41:10.174Z,3.80
2017-07-02T17:43:38.490Z,3.33
2017-07-02T17:46:06.807Z,2.40
2017-07-02T17:48:35.891Z,2.87
2017-07-02T17:51:04.234Z,4.77
2017-07-02T17:53:33.340Z,3.90
2017-07-02T17:56:02.425Z,3.43
2017-07-02T17:58:30.842Z,5.60
2017-07-02T18:00:59.093Z,2.70
2017-07-02T18:03:28.199Z,3.17
2017-07-02T18:05:57.228Z,1.97
2017-07-02T18:08:25.582Z,4.00
2017-07-02T18:10:53.873Z,1.70
2017-07-02T18:13:23.026Z,8.40
2017-07-02T18:15:51.322Z,3.87
2017-07-02T18:18:19.789Z,6.33
2017-07-02T18:20:48.095Z,3.00
2017-07-02T18:23:16.368Z,3.53
2017-07-02T18:25:44.709Z,7.13
2017-07-02T18:28:12.994Z,2.53
2017-07-02T18:30:42.146Z,3.90
2017-07-02T18:33:11.057Z,1.77
2017-07-02T18:35:40.259Z,5.23
2017-07-02T18:38:08.670Z,2.60
2017-07-02T18:40:37.059Z,6.67
2017-07-02T18:43:05.557Z,7.57
2017-07-02T18:45:34.004Z,6.13
2017-07-02T18:48:03.116Z,3.30
2017-07-02T18:50:31.537Z,2.77
2017-07-02T18:52:59.870Z,3.33
2017-07-02T18:55:28.990Z,2.57
2017-07-02T18:57:57.496Z,2.57
2017-07-02T19:00:25.984Z,2.37
2017-07-02T19:02:54.427Z,3.90
2017-07-02T19:05:22.936Z,2.60
2017-07-02T19:07:52.286Z,4.30
2017-07-02T19:10:20.621Z,6.00
2017-07-02T19:12:48.987Z,2.97
2017-07-02T19:15:17.325Z,4.47
2017-07-02T19:17:45.971Z,3.37
2017-07-02T19:20:14.478Z,8.30
2017-07-02T19:22:43.568Z,8.37
2017-07-02T19:25:13.480Z,5.90
2017-07-02T19:27:43.210Z,5.70
2017-07-02T19:30:14.155Z,5.03
2017-07-02T19:32:43.405Z,6.57
2017-07-02T19:35:12.001Z,5.60
2017-07-02T19:37:42.484Z,7.53
2017-07-02T19:40:11.153Z,4.60
2017-07-02T19:42:39.530Z,4.60
2017-07-02T19:45:07.937Z,7.53
2017-07-02T19:47:36.278Z,6.67
2017-07-02T19:50:04.665Z,6.00
2017-07-02T19:52:33.817Z,7.00
2017-07-02T19:55:02.134Z,4.63
2017-07-02T19:57:31.207Z,5.23
2017-07-02T19:59:59.585Z,6.70
2017-07-02T20:02:27.903Z,6.87
2017-07-02T20:04:56.275Z,6.55
2017-07-02T20:07:25.013Z,2.73
2017-07-02T20:09:54.094Z,2.73
2017-07-02T20:12:22.465Z,4.30
2017-07-02T20:14:51.558Z,4.73
2017-07-02T20:17:19.926Z,4.73
2017-07-02T20:19:48.974Z,5.07
2017-07-02T20:22:17.337Z,3.67
2017-07-02T20:24:46.061Z,4.47
2017-07-02T20:27:14.994Z,10.70
2017-07-02T20:29:45.055Z,2.60
2017-07-02T20:32:16.536Z,2.97
2017-07-02T20:34:47.560Z,4.53
2017-07-02T20:37:19.229Z,5.40
2017-07-02T20:39:50.861Z,7.40
2017-07-02T20:42:21.218Z,4.60
2017-07-02T20:44:51.431Z,3.20
2017-07-02T20:47:20.717Z,3.93
2017-07-02T20:49:52.577Z,5.50
2017-07-02T20:52:23.945Z,7.13
2017-07-02T20:54:55.145Z,8.13
2017-07-02T20:57:23.561Z,4.40
2017-07-02T20:59:52.594Z,3.70
2017-07-02T21:02:20.918Z,6.53
2017-07-02T21:04:50.016Z,6.13
2017-07-02T21:07:18.337Z,7.00
2017-07-02T21:09:46.664Z,9.77
2017-07-02T21:12:14.938Z,5.43
2017-07-02T21:14:43.227Z,4.33
2017-07-02T21:17:11.558Z,6.20
2017-07-02T21:19:39.838Z,4.73
2017-07-02T21:22:08.239Z,6.57
2017-07-02T21:24:37.861Z,5.37
2017-07-02T21:27:06.212Z,14.80
2017-07-02T21:29:34.579Z,3.30
2017-07-02T21:32:02.933Z,5.37
2017-07-02T21:34:31.611Z,5.60
2017-07-02T21:37:00.918Z,7.50
2017-07-02T21:39:29.235Z,2.57
2017-07-02T21:41:58.308Z,14.03
2017-07-02T21:44:27.378Z,8.50
2017-07-02T21:46:55.689Z,6.50
2017-07-02T21:49:23.989Z,9.37
2017-07-02T21:51:52.289Z,6.20
2017-07-02T21:54:20.654Z,6.43
2017-07-02T21:56:48.990Z,9.30
2017-07-02T21:59:17.275Z,4.87
2017-07-02T22:01:46.413Z,5.57
2017-07-02T22:04:14.721Z,9.10
2017-07-02T22:06:43.130Z,7.03
2017-07-02T22:09:12.627Z,6.63
2017-07-02T22:11:40.941Z,6.17
2017-07-02T22:14:09.315Z,5.90
2017-07-02T22:16:37.668Z,8.77
2017-07-02T22:19:06.723Z,5.23
2017-07-02T22:21:35.016Z,8.20
2017-07-02T22:24:03.403Z,7.83
2017-07-02T22:26:31.710Z,5.00
2017-07-02T22:28:59.977Z,8.70
2017-07-02T22:31:29.196Z,4.00
2017-07-02T22:33:58.237Z,7.00
2017-07-02T22:36:26.489Z,4.73
2017-07-02T22:38:54.897Z,4.70
2017-07-02T22:41:23.159Z,9.70
2017-07-02T22:43:51.614Z,7.33
2017-07-02T22:46:20.044Z,10.87
2017-07-02T22:48:49.101Z,8.37
2017-07-02T22:51:17.391Z,4.93
2017-07-02T22:53:45.709Z,5.53
2017-07-02T22:56:14.745Z,4.70
2017-07-02T22:58:43.076Z,8.80
2017-07-02T23:01:11.402Z,11.23
2017-07-02T23:03:39.745Z,7.93
2017-07-02T23:06:08.215Z,11.87
2017-07-02T23:08:36.525Z,6.30
2017-07-02T23:11:04.903Z,11.00
2017-07-02T23:13:33.275Z,17.13
2017-07-02T23:16:01.610Z,3.50
2017-07-02T23:18:30.748Z,6.77
2017-07-02T23:20:59.121Z,11.10
2017-07-02T23:23:27.389Z,6.77
2017-07-02T23:25:55.705Z,10.43
2017-07-02T23:28:23.995Z,7.27
2017-07-02T23:30:52.272Z,7.67
2017-07-02T23:33:21.050Z,10.00
2017-07-02T23:35:49.433Z,10.10
2017-07-02T23:38:17.726Z,11.23
2017-07-02T23:40:46.041Z,4.20
2017-07-02T23:43:15.122Z,8.43
2017-07-02T23:45:43.368Z,7.80
2017-07-02T23:48:11.651Z,10.40
2017-07-02T23:50:40.064Z,5.83
2017-07-02T23:53:09.136Z,11.00
2017-07-02T23:55:37.474Z,9.60
2017-07-02T23:58:05.715Z,12.90
